• Join FlightAware (Why Join?)
  • Login
  • US Flag 
11:14AM EST


 

Airport Tracker/Info


-or-


 

Live Flight TrackerFlight Track Log ✈ C-FRKI ✈ 22-Apr-2013 ✈ CYYZ - CYSJ

Flight Track Log - Related Links

Times and Time Zones

All times are in EDT time to prevent confusion due to time zone crossing. See the C-FRKI flight status page for this flight to view local times or setup timezone preferences in your user account.

Time Position Orientation Groundspeed Altitude Reporting Facility
EDT Latitude Longitude Course Direction KTS MPH feet Rate Location/Type
06:02PM 43.6833 -79.5667 65° Northeast 200 230 2,700  Level Toronto Center
06:03PM 43.7167 -79.4667 65° Northeast 280 322 6,400 2,100 Climbing Toronto Center
06:04PM 43.7333 -79.3500 79° East 290 334 7,000 900 Climbing Toronto Center
06:05PM 43.7167 -79.2667 105° East 290 334 8,300 2,880 Climbing Toronto Center
06:06PM 43.7167 -79.1333 90° East 310 357 12,800 4,200 Climbing Toronto Center
06:07PM 43.7500 -79.0167 68° East 340 391 16,700 3,660 Climbing Toronto Center
06:08PM 43.7833 -78.8667 73° East 360 414 20,200 3,540 Climbing Toronto Center
06:09PM 43.8167 -78.7333 71° East 380 437 23,800 3,360 Climbing Toronto Center
06:11PM 43.8500 -78.4333 81° East 380 437 30,400 2,880 Climbing Toronto Center
06:12PM 43.8833 -78.2833 73° East 380 437 32,500 2,100 Climbing Toronto Center
06:13PM 43.9167 -78.1500 71° East 390 449 34,700 1,980 Climbing Toronto Center
06:14PM 43.9500 -78.0167 71° East 400 460 36,500 1,680 Climbing Toronto Center
06:15PM 43.9833 -77.8500 74° East 400 460 38,100 1,500 Climbing Toronto Center
06:16PM 44.0167 -77.7167 71° East 400 460 39,500 1,200 Climbing Toronto Center
06:17PM 44.0500 -77.5500 74° East 410 472 40,500 720 Climbing Toronto Center
06:18PM 44.0833 -77.4000 73° East 410 472 41,000 240 Climbing Toronto Center
06:19PM 44.1167 -77.2333 74° East 440 506 41,000  Level Toronto Center
06:20PM 44.1667 -77.0833 65° Northeast 460 529 41,000  Level Toronto Center
06:21PM 44.2333 -76.9167 61° Northeast 480 552 41,000  Level Toronto Center
06:22PM 44.2833 -76.7500 67° East 500 575 41,000  Level Toronto Center
06:23PM 44.3333 -76.5500 71° East 500 575 41,000  Level Toronto Center
06:24PM 44.4000 -76.3667 63° Northeast 500 575 41,000  Level Toronto Center
06:25PM 44.4667 -76.2000 61° Northeast 500 575 41,000  Level Toronto Center
06:26PM 44.5000 -76.0000 77° East 500 575 41,000  Level Toronto Center
06:27PM 44.5667 -75.8333 61° Northeast 500 575 41,000  Level Toronto Center
06:28PM 44.6333 -75.6500 63° Northeast 500 575 41,000  Level Toronto Center
06:29PM 44.6667 -75.4833 74° East 500 575 41,000  Level Toronto Center
06:30PM 44.7333 -75.2833 65° Northeast 500 575 41,000  Level Toronto Center
06:31PM 44.7667 -75.1167 74° East 500 575 41,000  Level Toronto Center
06:32PM 44.8167 -74.9333 69° East 500 575 41,000  Level Toronto Center
06:33PM 44.8833 -74.7333 65° Northeast 500 575 41,000  Level Toronto Center
06:34PM 44.9167 -74.5500 76° East 500 575 41,000  Level Toronto Center
06:35PM 44.9667 -74.3833 67° East 500 575 41,000  Level Toronto Center
06:36PM 45.0000 -74.1833 77° East 500 575 41,000  Level Toronto Center
06:37PM 45.0500 -74.0167 67° East 500 575 41,000  Level Toronto Center
06:38PM 45.0667 -73.8333 83° East 500 575 41,000  Level Montreal Center
06:39PM 45.1167 -73.6500 69° East 500 575 41,000  Level Montreal Center
06:40PM 45.1500 -73.4500 77° East 500 575 41,000  Level Montreal Center
06:41PM 45.1667 -73.2833 82° East 500 575 41,000  Level Montreal Center
06:42PM 45.2167 -73.0667 72° East 500 575 41,000  Level Montreal Center
06:43PM 45.2500 -72.8833 75° East 500 575 41,000  Level Montreal Center
06:44PM 45.2667 -72.6833 83° East 500 575 41,000  Level Montreal Center
06:45PM 45.3000 -72.4833 77° East 500 575 41,000  Level Montreal Center
06:46PM 45.3167 -72.3000 83° East 500 575 41,000  Level Montreal Center
06:47PM 45.3167 -72.0833 90° East 500 575 41,000  Level Montreal Center
06:48PM 45.3333 -71.9000 83° East 500 575 41,000  Level Montreal Center
06:49PM 45.3333 -71.6833 90° East 500 575 41,000  Level Montreal Center
06:50PM 45.3500 -71.4833 83° East 500 575 41,000  Level Montreal Center
06:51PM 45.3500 -71.3000 90° East 500 575 41,000  Level Montreal Center
06:53PM 45.3500 -71.0167 90° East 500 575 41,000  Level Moncton Center
06:53PM 45.3514 -70.9339 89° East 284 327 41,000  Level Boston Center
06:54PM 45.3486 -70.7361 91° East 396 456 41,000  Level Boston Center
06:55PM 45.3433 -70.5208 92° East 455 524 41,000  Level Boston Center
06:56PM 45.3378 -70.3231 92° East 477 549 41,000  Level Boston Center
06:57PM 45.3319 -70.1256 92° East 496 571 41,000  Level Boston Center
06:58PM 45.3278 -69.9278 92° East 496 571 41,000  Level Boston Center
06:59PM 45.3211 -69.7303 93° East 496 571 41,000  Level Boston Center
07:00PM 45.3144 -69.5328 93° East 496 571 41,000 -120 Level Boston Center
07:01PM 45.3114 -69.3353 91° East 496 571 40,800 -900 Descending Boston Center
07:02PM 45.3036 -69.1347 93° East 496 571 39,300 -1,380 Descending Boston Center
07:03PM 45.2944 -68.9553 94° East 496 571 38,100 -1,440 Descending Boston Center
07:04PM 45.2881 -68.7492 92° East 508 585 36,500 -1,560 Descending Boston Center
07:05PM 45.2789 -68.5344 93° East 520 598 35,000 -1,680 Descending Boston Center
07:06PM 45.2694 -68.3256 94° East 533 613 33,200 -2,280 Descending Boston Center
07:07PM 45.2619 -68.1194 93° East 533 613 30,500 -2,580 Descending Boston Center
07:08PM 45.2506 -67.9256 95° East 510 587 28,100 -2,580 Descending Boston Center
07:09PM 45.2167 -67.8000 111° Southeast 460 529 26,500 -2,400 Descending Moncton Center
07:10PM 45.2333 -67.6333 82° East 440 506 24,400 -2,040 Descending Moncton Center
07:10PM 45.2364 -67.5758 86° East 453 521 23,600 -2,100 Descending Boston Center
07:11PM 45.2269 -67.4056 94° East 438 504 21,400 -2,280 Descending Boston Center
07:12PM 45.2000 -67.3000 110° East 420 483 20,100 -2,160 Descending Moncton Center
07:13PM 45.2000 -67.1500 90° East 400 460 18,100 -1,680 Descending Moncton Center
07:14PM 45.2000 -66.9833 90° East 390 449 16,800 -1,800 Descending Moncton Center
07:15PM 45.1833 -66.8333 99° East 380 437 14,500 -2,220 Descending Moncton Center
07:16PM 45.1667 -66.7000 100° East 360 414 12,400 -1,860 Descending Moncton Center
07:17PM 45.1667 -66.5833 90° East 330 380 10,800 -1,560 Descending Moncton Center
07:18PM 45.1500 -66.4667 101° East 290 334 9,300 -1,440 Descending Moncton Center
07:20PM 45.1333 -66.2500 96° East 270 311 6,600 -1,320 Descending Moncton Center
07:21PM 45.1500 -66.1500 77° East 260 299 5,400 -1,200 Descending Moncton Center
07:22PM 45.1333 -66.0500 103° East 250 288 4,200 -1,200 Descending Moncton Center
07:23PM 45.1833 -65.9833 43° Northeast 240 276 3,000 -1,200 Descending Moncton Center
07:24PM 45.2167 -65.9333 47° Northeast 200 230 1,900 -900 Descending Moncton Center
07:25PM 45.2500 -65.9167 19° North 120 138 1,200 -600 Descending Moncton Center
07:26PM 45.2833 -65.9000 19° North 100 115 700 -300 Descending Moncton Center
07:27PM 45.3000 -65.9000 360° North 100 115 700  Level Moncton Center